sensor_id;sensor_type;location;lat;lon;timestamp;P1;durP1;ratioP1;P2;durP2;ratioP2
10677;SDS011;5387;48.722;9.110;2024-01-27T00:00:05;6.23;;;3.03;;
10677;SDS011;5387;48.722;9.110;2024-01-27T00:02:32;4.43;;;2.50;;
10677;SDS011;5387;48.722;9.110;2024-01-27T00:04:59;8.53;;;2.97;;
10677;SDS011;5387;48.722;9.110;2024-01-27T00:07:27;8.70;;;2.80;;
10677;SDS011;5387;48.722;9.110;2024-01-27T00:09:54;4.47;;;2.57;;
10677;SDS011;5387;48.722;9.110;2024-01-27T00:12:21;7.07;;;3.00;;
10677;SDS011;5387;48.722;9.110;2024-01-27T00:14:48;7.53;;;4.73;;
10677;SDS011;5387;48.722;9.110;2024-01-27T00:17:15;9.87;;;5.17;;
10677;SDS011;5387;48.722;9.110;2024-01-27T00:19:42;5.73;;;3.07;;
10677;SDS011;5387;48.722;9.110;2024-01-27T00:22:09;4.20;;;3.20;;
10677;SDS011;5387;48.722;9.110;2024-01-27T00:24:37;4.30;;;2.50;;
10677;SDS011;5387;48.722;9.110;2024-01-27T00:27:03;11.83;;;2.70;;
10677;SDS011;5387;48.722;9.110;2024-01-27T00:29:30;8.30;;;2.97;;
10677;SDS011;5387;48.722;9.110;2024-01-27T00:31:57;8.30;;;3.57;;
10677;SDS011;5387;48.722;9.110;2024-01-27T00:34:24;4.20;;;2.67;;
10677;SDS011;5387;48.722;9.110;2024-01-27T00:36:51;5.97;;;2.90;;
10677;SDS011;5387;48.722;9.110;2024-01-27T00:39:17;4.00;;;2.63;;
10677;SDS011;5387;48.722;9.110;2024-01-27T00:41:46;6.73;;;2.70;;
10677;SDS011;5387;48.722;9.110;2024-01-27T00:44:12;8.90;;;2.90;;
10677;SDS011;5387;48.722;9.110;2024-01-27T00:46:39;5.03;;;3.13;;
10677;SDS011;5387;48.722;9.110;2024-01-27T00:49:06;5.33;;;2.70;;
10677;SDS011;5387;48.722;9.110;2024-01-27T00:51:33;9.30;;;2.63;;
10677;SDS011;5387;48.722;9.110;2024-01-27T00:54:00;6.13;;;2.23;;
10677;SDS011;5387;48.722;9.110;2024-01-27T00:56:27;6.30;;;2.17;;
10677;SDS011;5387;48.722;9.110;2024-01-27T00:58:55;3.10;;;2.00;;
10677;SDS011;5387;48.722;9.110;2024-01-27T01:01:21;6.27;;;2.20;;
10677;SDS011;5387;48.722;9.110;2024-01-27T01:03:48;3.07;;;1.97;;
10677;SDS011;5387;48.722;9.110;2024-01-27T01:06:15;3.50;;;2.07;;
10677;SDS011;5387;48.722;9.110;2024-01-27T01:08:42;7.20;;;2.00;;
10677;SDS011;5387;48.722;9.110;2024-01-27T01:11:08;4.27;;;1.70;;
10677;SDS011;5387;48.722;9.110;2024-01-27T01:13:35;9.63;;;2.03;;
10677;SDS011;5387;48.722;9.110;2024-01-27T01:16:04;6.10;;;1.87;;
10677;SDS011;5387;48.722;9.110;2024-01-27T01:18:33;8.90;;;2.17;;
10677;SDS011;5387;48.722;9.110;2024-01-27T01:20:59;4.40;;;2.00;;
10677;SDS011;5387;48.722;9.110;2024-01-27T01:23:26;2.97;;;1.83;;
10677;SDS011;5387;48.722;9.110;2024-01-27T01:25:53;2.87;;;2.10;;
10677;SDS011;5387;48.722;9.110;2024-01-27T01:28:20;7.63;;;2.10;;
10677;SDS011;5387;48.722;9.110;2024-01-27T01:30:46;2.27;;;1.70;;
10677;SDS011;5387;48.722;9.110;2024-01-27T01:33:13;2.93;;;1.77;;
10677;SDS011;5387;48.722;9.110;2024-01-27T01:35:40;6.10;;;2.27;;
10677;SDS011;5387;48.722;9.110;2024-01-27T01:38:07;5.43;;;2.10;;
10677;SDS011;5387;48.722;9.110;2024-01-27T01:40:34;7.23;;;2.07;;
10677;SDS011;5387;48.722;9.110;2024-01-27T01:43:00;6.43;;;1.63;;
10677;SDS011;5387;48.722;9.110;2024-01-27T01:45:28;4.80;;;2.13;;
10677;SDS011;5387;48.722;9.110;2024-01-27T01:47:55;5.17;;;2.07;;
10677;SDS011;5387;48.722;9.110;2024-01-27T01:50:23;5.03;;;2.47;;
10677;SDS011;5387;48.722;9.110;2024-01-27T01:52:50;3.97;;;2.50;;
10677;SDS011;5387;48.722;9.110;2024-01-27T01:55:18;3.50;;;2.70;;
10677;SDS011;5387;48.722;9.110;2024-01-27T01:57:45;4.67;;;2.90;;
10677;SDS011;5387;48.722;9.110;2024-01-27T02:00:14;7.13;;;3.97;;
10677;SDS011;5387;48.722;9.110;2024-01-27T02:02:42;18.50;;;4.53;;
10677;SDS011;5387;48.722;9.110;2024-01-27T02:05:10;5.13;;;3.33;;
10677;SDS011;5387;48.722;9.110;2024-01-27T02:07:39;9.43;;;5.10;;
10677;SDS011;5387;48.722;9.110;2024-01-27T02:10:06;7.37;;;3.67;;
10677;SDS011;5387;48.722;9.110;2024-01-27T02:12:39;6.73;;;2.63;;
10677;SDS011;5387;48.722;9.110;2024-01-27T02:15:09;7.60;;;2.93;;
10677;SDS011;5387;48.722;9.110;2024-01-27T02:17:37;22.87;;;8.93;;
10677;SDS011;5387;48.722;9.110;2024-01-27T02:20:05;15.30;;;7.63;;
10677;SDS011;5387;48.722;9.110;2024-01-27T02:22:32;6.17;;;3.10;;
10677;SDS011;5387;48.722;9.110;2024-01-27T02:25:01;3.57;;;2.20;;
10677;SDS011;5387;48.722;9.110;2024-01-27T02:27:29;5.50;;;3.30;;
10677;SDS011;5387;48.722;9.110;2024-01-27T02:29:55;8.97;;;2.87;;
10677;SDS011;5387;48.722;9.110;2024-01-27T02:32:22;6.33;;;2.70;;
10677;SDS011;5387;48.722;9.110;2024-01-27T02:34:49;7.93;;;2.50;;
10677;SDS011;5387;48.722;9.110;2024-01-27T02:37:16;5.33;;;2.77;;
10677;SDS011;5387;48.722;9.110;2024-01-27T02:39:44;10.60;;;3.43;;
10677;SDS011;5387;48.722;9.110;2024-01-27T02:42:12;4.67;;;1.97;;
10677;SDS011;5387;48.722;9.110;2024-01-27T02:44:38;10.60;;;2.00;;
10677;SDS011;5387;48.722;9.110;2024-01-27T02:47:05;5.33;;;2.07;;
10677;SDS011;5387;48.722;9.110;2024-01-27T02:49:32;6.53;;;2.30;;
10677;SDS011;5387;48.722;9.110;2024-01-27T02:51:59;5.93;;;1.87;;
10677;SDS011;5387;48.722;9.110;2024-01-27T02:54:26;4.70;;;2.30;;
10677;SDS011;5387;48.722;9.110;2024-01-27T02:56:53;2.10;;;1.90;;
10677;SDS011;5387;48.722;9.110;2024-01-27T02:59:21;3.80;;;2.07;;
10677;SDS011;5387;48.722;9.110;2024-01-27T03:01:48;2.43;;;2.03;;
10677;SDS011;5387;48.722;9.110;2024-01-27T03:04:15;10.47;;;4.10;;
10677;SDS011;5387;48.722;9.110;2024-01-27T03:06:42;31.63;;;9.70;;
10677;SDS011;5387;48.722;9.110;2024-01-27T03:09:09;37.17;;;12.63;;
10677;SDS011;5387;48.722;9.110;2024-01-27T03:11:36;27.93;;;10.73;;
10677;SDS011;5387;48.722;9.110;2024-01-27T03:14:03;19.00;;;7.87;;
10677;SDS011;5387;48.722;9.110;2024-01-27T03:16:31;20.40;;;8.27;;
10677;SDS011;5387;48.722;9.110;2024-01-27T03:18:58;29.27;;;8.37;;
10677;SDS011;5387;48.722;9.110;2024-01-27T03:21:25;19.97;;;6.77;;
10677;SDS011;5387;48.722;9.110;2024-01-27T03:23:52;22.90;;;7.80;;
10677;SDS011;5387;48.722;9.110;2024-01-27T03:26:18;23.00;;;7.33;;
10677;SDS011;5387;48.722;9.110;2024-01-27T03:28:45;11.07;;;4.07;;
10677;SDS011;5387;48.722;9.110;2024-01-27T03:31:12;7.63;;;3.77;;
10677;SDS011;5387;48.722;9.110;2024-01-27T03:33:40;15.50;;;3.93;;
10677;SDS011;5387;48.722;9.110;2024-01-27T03:36:09;9.73;;;4.17;;
10677;SDS011;5387;48.722;9.110;2024-01-27T03:38:36;11.07;;;4.83;;
10677;SDS011;5387;48.722;9.110;2024-01-27T03:41:04;8.93;;;4.40;;
10677;SDS011;5387;48.722;9.110;2024-01-27T03:43:31;11.87;;;4.50;;
10677;SDS011;5387;48.722;9.110;2024-01-27T03:45:58;13.50;;;5.03;;
10677;SDS011;5387;48.722;9.110;2024-01-27T03:48:25;6.33;;;3.80;;
10677;SDS011;5387;48.722;9.110;2024-01-27T03:50:53;12.60;;;3.83;;
10677;SDS011;5387;48.722;9.110;2024-01-27T03:53:20;5.57;;;3.23;;
10677;SDS011;5387;48.722;9.110;2024-01-27T03:55:47;9.23;;;4.00;;
10677;SDS011;5387;48.722;9.110;2024-01-27T03:58:14;7.20;;;3.70;;
10677;SDS011;5387;48.722;9.110;2024-01-27T04:00:40;9.77;;;3.43;;
10677;SDS011;5387;48.722;9.110;2024-01-27T04:03:07;6.47;;;3.10;;
10677;SDS011;5387;48.722;9.110;2024-01-27T04:05:34;5.90;;;3.03;;
10677;SDS011;5387;48.722;9.110;2024-01-27T04:08:03;7.30;;;3.33;;
10677;SDS011;5387;48.722;9.110;2024-01-27T04:10:31;7.40;;;3.33;;
10677;SDS011;5387;48.722;9.110;2024-01-27T04:12:59;5.37;;;3.20;;
10677;SDS011;5387;48.722;9.110;2024-01-27T04:15:26;5.83;;;3.03;;
10677;SDS011;5387;48.722;9.110;2024-01-27T04:17:52;3.70;;;2.30;;
10677;SDS011;5387;48.722;9.110;2024-01-27T04:20:20;9.80;;;2.57;;
10677;SDS011;5387;48.722;9.110;2024-01-27T04:22:47;8.83;;;2.83;;
10677;SDS011;5387;48.722;9.110;2024-01-27T04:25:15;6.43;;;2.97;;
10677;SDS011;5387;48.722;9.110;2024-01-27T04:27:42;7.33;;;3.07;;
10677;SDS011;5387;48.722;9.110;2024-01-27T04:30:10;7.27;;;3.03;;
10677;SDS011;5387;48.722;9.110;2024-01-27T04:32:37;8.17;;;2.73;;
10677;SDS011;5387;48.722;9.110;2024-01-27T04:35:06;5.73;;;2.53;;
10677;SDS011;5387;48.722;9.110;2024-01-27T04:37:35;8.93;;;3.00;;
10677;SDS011;5387;48.722;9.110;2024-01-27T04:40:03;7.80;;;2.60;;
10677;SDS011;5387;48.722;9.110;2024-01-27T04:42:32;3.60;;;2.43;;
10677;SDS011;5387;48.722;9.110;2024-01-27T04:44:59;3.03;;;2.10;;
10677;SDS011;5387;48.722;9.110;2024-01-27T04:47:25;5.07;;;2.40;;
10677;SDS011;5387;48.722;9.110;2024-01-27T04:49:53;5.10;;;2.83;;
10677;SDS011;5387;48.722;9.110;2024-01-27T04:52:20;10.30;;;2.73;;
10677;SDS011;5387;48.722;9.110;2024-01-27T04:54:47;5.77;;;2.33;;
10677;SDS011;5387;48.722;9.110;2024-01-27T04:57:13;6.57;;;2.30;;
10677;SDS011;5387;48.722;9.110;2024-01-27T04:59:42;3.90;;;2.43;;
10677;SDS011;5387;48.722;9.110;2024-01-27T05:02:08;5.37;;;2.23;;
10677;SDS011;5387;48.722;9.110;2024-01-27T05:04:36;7.53;;;2.20;;
10677;SDS011;5387;48.722;9.110;2024-01-27T05:07:03;3.23;;;2.37;;
10677;SDS011;5387;48.722;9.110;2024-01-27T05:09:30;6.63;;;2.67;;
10677;SDS011;5387;48.722;9.110;2024-01-27T05:11:59;5.73;;;3.00;;
10677;SDS011;5387;48.722;9.110;2024-01-27T05:14:26;6.03;;;3.50;;
10677;SDS011;5387;48.722;9.110;2024-01-27T05:16:54;14.00;;;2.80;;
10677;SDS011;5387;48.722;9.110;2024-01-27T05:19:21;5.77;;;2.93;;
10677;SDS011;5387;48.722;9.110;2024-01-27T05:21:48;2.93;;;2.50;;
10677;SDS011;5387;48.722;9.110;2024-01-27T05:24:14;3.07;;;2.20;;
10677;SDS011;5387;48.722;9.110;2024-01-27T05:26:41;4.13;;;2.27;;
10677;SDS011;5387;48.722;9.110;2024-01-27T05:29:08;4.40;;;2.57;;
10677;SDS011;5387;48.722;9.110;2024-01-27T05:31:35;6.97;;;2.67;;
10677;SDS011;5387;48.722;9.110;2024-01-27T05:34:03;4.33;;;2.23;;
10677;SDS011;5387;48.722;9.110;2024-01-27T05:36:30;8.30;;;2.50;;
10677;SDS011;5387;48.722;9.110;2024-01-27T05:38:57;8.47;;;2.40;;
10677;SDS011;5387;48.722;9.110;2024-01-27T05:41:25;8.00;;;2.50;;
10677;SDS011;5387;48.722;9.110;2024-01-27T05:43:53;5.30;;;2.23;;
10677;SDS011;5387;48.722;9.110;2024-01-27T05:46:22;5.27;;;2.63;;
10677;SDS011;5387;48.722;9.110;2024-01-27T05:48:49;12.30;;;2.70;;
10677;SDS011;5387;48.722;9.110;2024-01-27T05:51:20;5.27;;;2.27;;
10677;SDS011;5387;48.722;9.110;2024-01-27T05:53:48;4.93;;;2.67;;
10677;SDS011;5387;48.722;9.110;2024-01-27T05:56:14;3.80;;;2.60;;
10677;SDS011;5387;48.722;9.110;2024-01-27T05:58:41;2.80;;;2.27;;
10677;SDS011;5387;48.722;9.110;2024-01-27T06:01:08;5.73;;;2.50;;
10677;SDS011;5387;48.722;9.110;2024-01-27T06:03:35;5.87;;;3.10;;
10677;SDS011;5387;48.722;9.110;2024-01-27T06:06:02;3.70;;;2.67;;
10677;SDS011;5387;48.722;9.110;2024-01-27T06:08:30;5.70;;;3.07;;
10677;SDS011;5387;48.722;9.110;2024-01-27T06:10:57;4.70;;;2.77;;
10677;SDS011;5387;48.722;9.110;2024-01-27T06:13:24;8.83;;;3.63;;
10677;SDS011;5387;48.722;9.110;2024-01-27T06:15:51;5.60;;;2.73;;
10677;SDS011;5387;48.722;9.110;2024-01-27T06:18:17;6.67;;;3.00;;
10677;SDS011;5387;48.722;9.110;2024-01-27T06:20:44;4.07;;;2.50;;
10677;SDS011;5387;48.722;9.110;2024-01-27T06:23:11;13.07;;;4.10;;
10677;SDS011;5387;48.722;9.110;2024-01-27T06:25:39;5.43;;;3.30;;
10677;SDS011;5387;48.722;9.110;2024-01-27T06:28:06;4.07;;;3.17;;
10677;SDS011;5387;48.722;9.110;2024-01-27T06:30:33;6.30;;;2.73;;
10677;SDS011;5387;48.722;9.110;2024-01-27T06:32:59;7.13;;;2.40;;
10677;SDS011;5387;48.722;9.110;2024-01-27T06:35:26;6.70;;;2.20;;
10677;SDS011;5387;48.722;9.110;2024-01-27T06:37:53;2.77;;;2.07;;
10677;SDS011;5387;48.722;9.110;2024-01-27T06:40:20;8.60;;;2.50;;
10677;SDS011;5387;48.722;9.110;2024-01-27T06:42:48;4.37;;;2.60;;
10677;SDS011;5387;48.722;9.110;2024-01-27T06:45:15;5.97;;;2.53;;
10677;SDS011;5387;48.722;9.110;2024-01-27T06:47:45;5.37;;;2.53;;
10677;SDS011;5387;48.722;9.110;2024-01-27T06:50:12;6.23;;;2.10;;
10677;SDS011;5387;48.722;9.110;2024-01-27T06:52:40;7.73;;;3.13;;
10677;SDS011;5387;48.722;9.110;2024-01-27T06:55:07;4.33;;;2.40;;
10677;SDS011;5387;48.722;9.110;2024-01-27T06:57:35;3.77;;;2.27;;
10677;SDS011;5387;48.722;9.110;2024-01-27T07:00:04;4.50;;;2.60;;
10677;SDS011;5387;48.722;9.110;2024-01-27T07:02:33;5.07;;;2.47;;
10677;SDS011;5387;48.722;9.110;2024-01-27T07:04:59;3.57;;;2.23;;
10677;SDS011;5387;48.722;9.110;2024-01-27T07:07:26;9.63;;;3.43;;
10677;SDS011;5387;48.722;9.110;2024-01-27T07:09:54;2.93;;;2.50;;
10677;SDS011;5387;48.722;9.110;2024-01-27T07:12:21;14.53;;;3.90;;
10677;SDS011;5387;48.722;9.110;2024-01-27T07:14:49;15.73;;;3.33;;
10677;SDS011;5387;48.722;9.110;2024-01-27T07:17:17;8.07;;;2.53;;
10677;SDS011;5387;48.722;9.110;2024-01-27T07:19:44;3.23;;;2.50;;
10677;SDS011;5387;48.722;9.110;2024-01-27T07:22:11;5.80;;;2.90;;
10677;SDS011;5387;48.722;9.110;2024-01-27T07:24:38;11.47;;;3.17;;
10677;SDS011;5387;48.722;9.110;2024-01-27T07:27:05;15.83;;;3.03;;
10677;SDS011;5387;48.722;9.110;2024-01-27T07:29:32;9.63;;;2.70;;
10677;SDS011;5387;48.722;9.110;2024-01-27T07:31:58;15.37;;;4.50;;
10677;SDS011;5387;48.722;9.110;2024-01-27T07:34:26;19.33;;;3.27;;
10677;SDS011;5387;48.722;9.110;2024-01-27T07:36:53;5.13;;;2.67;;
10677;SDS011;5387;48.722;9.110;2024-01-27T07:39:20;146.60;;;11.73;;
10677;SDS011;5387;48.722;9.110;2024-01-27T07:41:47;107.47;;;10.37;;
10677;SDS011;5387;48.722;9.110;2024-01-27T07:44:14;16.60;;;3.77;;
10677;SDS011;5387;48.722;9.110;2024-01-27T07:46:41;15.97;;;3.60;;
10677;SDS011;5387;48.722;9.110;2024-01-27T07:49:08;26.27;;;4.63;;
10677;SDS011;5387;48.722;9.110;2024-01-27T07:51:38;19.27;;;3.67;;
10677;SDS011;5387;48.722;9.110;2024-01-27T07:54:05;6.30;;;3.13;;
10677;SDS011;5387;48.722;9.110;2024-01-27T07:56:32;8.13;;;2.80;;
10677;SDS011;5387;48.722;9.110;2024-01-27T07:58:59;8.80;;;2.43;;
10677;SDS011;5387;48.722;9.110;2024-01-27T08:01:26;4.67;;;2.63;;
10677;SDS011;5387;48.722;9.110;2024-01-27T08:03:52;6.57;;;2.40;;
10677;SDS011;5387;48.722;9.110;2024-01-27T08:06:22;6.43;;;3.03;;
10677;SDS011;5387;48.722;9.110;2024-01-27T08:08:55;7.47;;;2.90;;
10677;SDS011;5387;48.722;9.110;2024-01-27T08:11:22;5.83;;;2.97;;
10677;SDS011;5387;48.722;9.110;2024-01-27T08:13:49;7.47;;;3.20;;
10677;SDS011;5387;48.722;9.110;2024-01-27T08:16:17;4.53;;;2.67;;
10677;SDS011;5387;48.722;9.110;2024-01-27T08:18:43;8.70;;;2.83;;
10677;SDS011;5387;48.722;9.110;2024-01-27T08:21:10;8.80;;;2.87;;
10677;SDS011;5387;48.722;9.110;2024-01-27T08:23:37;5.03;;;3.20;;
10677;SDS011;5387;48.722;9.110;2024-01-27T08:26:06;6.50;;;3.53;;
10677;SDS011;5387;48.722;9.110;2024-01-27T08:28:32;7.87;;;3.43;;
10677;SDS011;5387;48.722;9.110;2024-01-27T08:30:59;6.70;;;3.30;;
10677;SDS011;5387;48.722;9.110;2024-01-27T08:33:26;10.63;;;4.00;;
10677;SDS011;5387;48.722;9.110;2024-01-27T08:35:53;7.10;;;3.47;;
10677;SDS011;5387;48.722;9.110;2024-01-27T08:38:20;12.87;;;4.10;;
10677;SDS011;5387;48.722;9.110;2024-01-27T08:40:47;5.53;;;3.80;;
10677;SDS011;5387;48.722;9.110;2024-01-27T08:43:15;10.73;;;3.67;;
10677;SDS011;5387;48.722;9.110;2024-01-27T08:45:42;9.50;;;4.47;;
10677;SDS011;5387;48.722;9.110;2024-01-27T08:48:08;11.77;;;5.17;;
10677;SDS011;5387;48.722;9.110;2024-01-27T08:50:36;10.10;;;5.07;;
10677;SDS011;5387;48.722;9.110;2024-01-27T08:53:03;8.80;;;3.77;;
10677;SDS011;5387;48.722;9.110;2024-01-27T08:55:30;9.27;;;4.13;;
10677;SDS011;5387;48.722;9.110;2024-01-27T08:57:57;7.37;;;4.00;;
10677;SDS011;5387;48.722;9.110;2024-01-27T09:00:25;7.70;;;4.10;;
10677;SDS011;5387;48.722;9.110;2024-01-27T09:02:52;7.10;;;3.83;;
10677;SDS011;5387;48.722;9.110;2024-01-27T09:05:19;10.83;;;3.60;;
10677;SDS011;5387;48.722;9.110;2024-01-27T09:07:45;6.20;;;3.97;;
10677;SDS011;5387;48.722;9.110;2024-01-27T09:10:12;7.70;;;3.47;;
10677;SDS011;5387;48.722;9.110;2024-01-27T09:12:40;5.03;;;3.27;;
10677;SDS011;5387;48.722;9.110;2024-01-27T09:15:07;5.17;;;2.83;;
10677;SDS011;5387;48.722;9.110;2024-01-27T09:17:36;6.80;;;3.07;;
10677;SDS011;5387;48.722;9.110;2024-01-27T09:20:03;12.57;;;3.20;;
10677;SDS011;5387;48.722;9.110;2024-01-27T09:22:31;4.60;;;3.23;;
10677;SDS011;5387;48.722;9.110;2024-01-27T09:24:57;7.90;;;3.43;;
10677;SDS011;5387;48.722;9.110;2024-01-27T09:27:24;3.40;;;2.60;;
10677;SDS011;5387;48.722;9.110;2024-01-27T09:29:51;10.33;;;2.90;;
10677;SDS011;5387;48.722;9.110;2024-01-27T09:32:18;7.00;;;2.97;;
10677;SDS011;5387;48.722;9.110;2024-01-27T09:34:46;5.60;;;2.50;;
10677;SDS011;5387;48.722;9.110;2024-01-27T09:37:13;5.63;;;3.00;;
10677;SDS011;5387;48.722;9.110;2024-01-27T09:39:39;4.77;;;2.73;;
10677;SDS011;5387;48.722;9.110;2024-01-27T09:42:06;5.40;;;3.03;;
10677;SDS011;5387;48.722;9.110;2024-01-27T09:44:35;4.50;;;2.40;;
10677;SDS011;5387;48.722;9.110;2024-01-27T09:47:02;8.07;;;2.20;;
10677;SDS011;5387;48.722;9.110;2024-01-27T09:49:30;8.17;;;2.37;;
10677;SDS011;5387;48.722;9.110;2024-01-27T09:51:59;5.20;;;2.20;;
10677;SDS011;5387;48.722;9.110;2024-01-27T09:54:25;4.63;;;1.90;;
10677;SDS011;5387;48.722;9.110;2024-01-27T09:56:53;5.77;;;2.47;;
10677;SDS011;5387;48.722;9.110;2024-01-27T09:59:22;5.10;;;2.30;;
10677;SDS011;5387;48.722;9.110;2024-01-27T10:01:50;6.00;;;2.33;;
10677;SDS011;5387;48.722;9.110;2024-01-27T10:04:18;9.50;;;2.77;;
10677;SDS011;5387;48.722;9.110;2024-01-27T10:06:46;4.13;;;2.37;;
10677;SDS011;5387;48.722;9.110;2024-01-27T10:09:16;12.00;;;2.33;;
10677;SDS011;5387;48.722;9.110;2024-01-27T10:11:45;4.27;;;2.20;;
10677;SDS011;5387;48.722;9.110;2024-01-27T10:14:13;7.47;;;2.47;;
10677;SDS011;5387;48.722;9.110;2024-01-27T10:16:40;11.23;;;2.50;;
10677;SDS011;5387;48.722;9.110;2024-01-27T10:19:08;5.63;;;2.13;;
10677;SDS011;5387;48.722;9.110;2024-01-27T10:21:40;5.43;;;2.37;;
10677;SDS011;5387;48.722;9.110;2024-01-27T10:24:07;3.33;;;2.27;;
10677;SDS011;5387;48.722;9.110;2024-01-27T10:26:35;6.43;;;2.20;;
10677;SDS011;5387;48.722;9.110;2024-01-27T10:29:02;6.07;;;2.20;;
10677;SDS011;5387;48.722;9.110;2024-01-27T10:31:29;5.33;;;2.27;;
10677;SDS011;5387;48.722;9.110;2024-01-27T10:33:57;5.53;;;2.17;;
10677;SDS011;5387;48.722;9.110;2024-01-27T10:36:26;7.70;;;2.93;;
10677;SDS011;5387;48.722;9.110;2024-01-27T10:39:13;5.37;;;2.00;;
10677;SDS011;5387;48.722;9.110;2024-01-27T10:41:42;9.03;;;2.70;;
10677;SDS011;5387;48.722;9.110;2024-01-27T10:44:11;7.77;;;2.63;;
10677;SDS011;5387;48.722;9.110;2024-01-27T10:46:40;5.93;;;2.53;;
10677;SDS011;5387;48.722;9.110;2024-01-27T10:49:10;6.27;;;2.70;;
10677;SDS011;5387;48.722;9.110;2024-01-27T10:51:40;13.30;;;3.03;;
10677;SDS011;5387;48.722;9.110;2024-01-27T10:54:12;7.00;;;2.77;;
10677;SDS011;5387;48.722;9.110;2024-01-27T10:56:43;4.80;;;2.73;;
10677;SDS011;5387;48.722;9.110;2024-01-27T10:59:12;8.07;;;2.87;;
10677;SDS011;5387;48.722;9.110;2024-01-27T11:01:41;8.53;;;3.10;;
10677;SDS011;5387;48.722;9.110;2024-01-27T11:04:11;7.00;;;3.43;;
10677;SDS011;5387;48.722;9.110;2024-01-27T11:06:39;10.20;;;3.53;;
10677;SDS011;5387;48.722;9.110;2024-01-27T11:09:09;12.13;;;2.67;;
10677;SDS011;5387;48.722;9.110;2024-01-27T11:11:38;11.83;;;3.57;;
10677;SDS011;5387;48.722;9.110;2024-01-27T11:14:07;7.57;;;3.20;;
10677;SDS011;5387;48.722;9.110;2024-01-27T11:16:35;7.73;;;3.00;;
10677;SDS011;5387;48.722;9.110;2024-01-27T11:19:03;4.40;;;2.87;;
10677;SDS011;5387;48.722;9.110;2024-01-27T11:21:30;3.63;;;2.30;;
10677;SDS011;5387;48.722;9.110;2024-01-27T11:23:57;6.10;;;3.03;;
10677;SDS011;5387;48.722;9.110;2024-01-27T11:26:24;4.57;;;2.90;;
10677;SDS011;5387;48.722;9.110;2024-01-27T11:28:51;5.53;;;2.13;;
10677;SDS011;5387;48.722;9.110;2024-01-27T11:31:20;6.63;;;2.70;;
10677;SDS011;5387;48.722;9.110;2024-01-27T11:33:47;11.83;;;2.50;;
10677;SDS011;5387;48.722;9.110;2024-01-27T11:36:20;8.50;;;2.53;;
10677;SDS011;5387;48.722;9.110;2024-01-27T11:38:48;7.73;;;2.40;;
10677;SDS011;5387;48.722;9.110;2024-01-27T11:41:25;13.83;;;3.63;;
10677;SDS011;5387;48.722;9.110;2024-01-27T11:43:52;8.20;;;2.70;;
10677;SDS011;5387;48.722;9.110;2024-01-27T11:46:21;5.63;;;2.50;;
10677;SDS011;5387;48.722;9.110;2024-01-27T11:48:48;5.73;;;3.20;;
10677;SDS011;5387;48.722;9.110;2024-01-27T11:51:17;10.73;;;3.27;;
10677;SDS011;5387;48.722;9.110;2024-01-27T11:53:44;4.73;;;3.30;;
10677;SDS011;5387;48.722;9.110;2024-01-27T11:56:13;13.17;;;3.67;;
10677;SDS011;5387;48.722;9.110;2024-01-27T11:58:45;10.77;;;3.70;;
10677;SDS011;5387;48.722;9.110;2024-01-27T12:01:13;5.83;;;3.70;;
10677;SDS011;5387;48.722;9.110;2024-01-27T12:03:42;9.10;;;4.23;;
10677;SDS011;5387;48.722;9.110;2024-01-27T12:06:09;8.83;;;3.70;;
10677;SDS011;5387;48.722;9.110;2024-01-27T12:08:36;13.63;;;4.43;;
10677;SDS011;5387;48.722;9.110;2024-01-27T12:11:03;4.50;;;3.53;;
10677;SDS011;5387;48.722;9.110;2024-01-27T12:13:30;5.90;;;3.27;;
10677;SDS011;5387;48.722;9.110;2024-01-27T12:15:56;11.53;;;4.00;;
10677;SDS011;5387;48.722;9.110;2024-01-27T12:18:23;5.47;;;2.80;;
10677;SDS011;5387;48.722;9.110;2024-01-27T12:20:55;3.33;;;2.50;;
10677;SDS011;5387;48.722;9.110;2024-01-27T12:23:23;9.40;;;2.37;;
10677;SDS011;5387;48.722;9.110;2024-01-27T12:25:52;9.30;;;3.00;;
10677;SDS011;5387;48.722;9.110;2024-01-27T12:28:21;4.73;;;2.90;;
10677;SDS011;5387;48.722;9.110;2024-01-27T12:30:49;5.77;;;3.50;;
10677;SDS011;5387;48.722;9.110;2024-01-27T12:33:17;6.03;;;3.27;;
10677;SDS011;5387;48.722;9.110;2024-01-27T12:35:48;8.03;;;3.00;;
10677;SDS011;5387;48.722;9.110;2024-01-27T12:38:16;7.60;;;3.67;;
10677;SDS011;5387;48.722;9.110;2024-01-27T12:40:43;11.90;;;3.60;;
10677;SDS011;5387;48.722;9.110;2024-01-27T12:43:10;11.87;;;3.63;;
10677;SDS011;5387;48.722;9.110;2024-01-27T12:45:37;10.33;;;3.77;;
10677;SDS011;5387;48.722;9.110;2024-01-27T12:48:04;11.07;;;3.93;;
10677;SDS011;5387;48.722;9.110;2024-01-27T12:50:31;9.63;;;3.00;;
10677;SDS011;5387;48.722;9.110;2024-01-27T12:52:58;4.60;;;3.13;;
10677;SDS011;5387;48.722;9.110;2024-01-27T12:55:27;9.50;;;3.27;;
10677;SDS011;5387;48.722;9.110;2024-01-27T12:57:53;7.67;;;3.60;;
10677;SDS011;5387;48.722;9.110;2024-01-27T13:00:20;10.07;;;3.73;;
10677;SDS011;5387;48.722;9.110;2024-01-27T13:02:47;3.53;;;2.67;;
10677;SDS011;5387;48.722;9.110;2024-01-27T13:05:14;7.27;;;3.03;;
10677;SDS011;5387;48.722;9.110;2024-01-27T13:07:41;14.67;;;3.00;;
10677;SDS011;5387;48.722;9.110;2024-01-27T13:10:10;5.93;;;2.83;;
10677;SDS011;5387;48.722;9.110;2024-01-27T13:12:38;5.53;;;2.70;;
10677;SDS011;5387;48.722;9.110;2024-01-27T13:15:05;7.40;;;3.03;;
10677;SDS011;5387;48.722;9.110;2024-01-27T13:17:32;6.83;;;2.27;;
10677;SDS011;5387;48.722;9.110;2024-01-27T13:19:58;5.97;;;2.03;;
10677;SDS011;5387;48.722;9.110;2024-01-27T13:22:25;5.33;;;1.90;;
10677;SDS011;5387;48.722;9.110;2024-01-27T13:24:52;2.07;;;1.33;;
10677;SDS011;5387;48.722;9.110;2024-01-27T13:27:19;3.13;;;1.63;;
10677;SDS011;5387;48.722;9.110;2024-01-27T13:29:47;4.63;;;2.27;;
10677;SDS011;5387;48.722;9.110;2024-01-27T13:32:14;5.33;;;1.90;;
10677;SDS011;5387;48.722;9.110;2024-01-27T13:34:41;5.03;;;2.17;;
10677;SDS011;5387;48.722;9.110;2024-01-27T13:37:08;5.90;;;2.30;;
10677;SDS011;5387;48.722;9.110;2024-01-27T13:39:36;2.27;;;1.80;;
10677;SDS011;5387;48.722;9.110;2024-01-27T13:42:03;1.40;;;1.27;;
10677;SDS011;5387;48.722;9.110;2024-01-27T13:44:31;5.20;;;1.93;;
10677;SDS011;5387;48.722;9.110;2024-01-27T13:47:01;4.40;;;1.90;;
10677;SDS011;5387;48.722;9.110;2024-01-27T13:49:29;2.53;;;2.10;;
10677;SDS011;5387;48.722;9.110;2024-01-27T13:51:56;2.70;;;1.80;;
10677;SDS011;5387;48.722;9.110;2024-01-27T13:54:23;2.30;;;1.50;;
10677;SDS011;5387;48.722;9.110;2024-01-27T13:56:50;4.40;;;1.97;;
10677;SDS011;5387;48.722;9.110;2024-01-27T13:59:17;3.37;;;2.03;;
10677;SDS011;5387;48.722;9.110;2024-01-27T14:01:44;2.90;;;1.80;;
10677;SDS011;5387;48.722;9.110;2024-01-27T14:04:12;2.17;;;1.63;;
10677;SDS011;5387;48.722;9.110;2024-01-27T14:06:39;8.03;;;1.77;;
10677;SDS011;5387;48.722;9.110;2024-01-27T14:09:06;4.97;;;1.83;;
10677;SDS011;5387;48.722;9.110;2024-01-27T14:11:33;2.70;;;2.00;;
10677;SDS011;5387;48.722;9.110;2024-01-27T14:14:00;2.10;;;1.30;;
10677;SDS011;5387;48.722;9.110;2024-01-27T14:16:27;3.17;;;1.50;;
10677;SDS011;5387;48.722;9.110;2024-01-27T14:18:54;4.73;;;1.90;;
10677;SDS011;5387;48.722;9.110;2024-01-27T14:21:23;3.13;;;1.70;;
10677;SDS011;5387;48.722;9.110;2024-01-27T14:23:49;4.23;;;2.17;;
10677;SDS011;5387;48.722;9.110;2024-01-27T14:26:21;5.93;;;2.23;;
10677;SDS011;5387;48.722;9.110;2024-01-27T14:28:48;4.40;;;2.30;;
10677;SDS011;5387;48.722;9.110;2024-01-27T14:31:15;4.63;;;2.00;;
10677;SDS011;5387;48.722;9.110;2024-01-27T14:33:42;6.83;;;2.20;;
10677;SDS011;5387;48.722;9.110;2024-01-27T14:36:08;2.33;;;2.07;;
10677;SDS011;5387;48.722;9.110;2024-01-27T14:38:37;4.17;;;1.93;;
10677;SDS011;5387;48.722;9.110;2024-01-27T14:41:05;4.57;;;2.40;;
10677;SDS011;5387;48.722;9.110;2024-01-27T14:43:32;2.70;;;1.80;;
10677;SDS011;5387;48.722;9.110;2024-01-27T14:45:59;5.20;;;2.30;;
10677;SDS011;5387;48.722;9.110;2024-01-27T14:48:26;5.83;;;2.30;;
10677;SDS011;5387;48.722;9.110;2024-01-27T14:50:53;4.70;;;2.10;;
10677;SDS011;5387;48.722;9.110;2024-01-27T14:53:23;9.70;;;2.60;;
10677;SDS011;5387;48.722;9.110;2024-01-27T14:55:52;5.97;;;2.30;;
10677;SDS011;5387;48.722;9.110;2024-01-27T14:58:19;3.63;;;2.37;;